Ustick, Illinois
Current Conditions -  °F | °C
As of 9:55 PM on Thursday 18 Dec 2014 (Local Time) from KSQI Reporting Station
Clear Clear  
Wind Chill: -7°   Ceiling: Unl
Heat Index: -7°   Visibility: 8mi
Dew Point: -9°   Wind: 3mph
Humidity: 86%   Direction: 270°W
Pressure: 30.29"   Gusts: NA
Location:  41.8285°N, 89.9656°W
Report Text: KSQI 190355Z 27003KT 8SM CLR M07/M09 A3029 RMK AO1
Loading
Personal Weather Stations






























Interactive Weather Map New forecast layout! Learn more

10-Day Weather Forecast

Advertisements
Track Severe Weather on mobile